createdAt,value
2022-08-07T00:02:40.704Z,15.60
2022-08-07T00:05:03.890Z,15.60
2022-08-07T00:07:40.353Z,15.60
2022-08-07T00:10:25.943Z,15.60
2022-08-07T00:13:00.408Z,15.60
2022-08-07T00:15:37.768Z,15.60
2022-08-07T00:18:19.231Z,15.50
2022-08-07T00:20:49.258Z,15.50
2022-08-07T00:23:17.388Z,15.40
2022-08-07T00:25:45.836Z,15.40
2022-08-07T00:28:21.991Z,15.30
2022-08-07T00:30:51.434Z,15.20
2022-08-07T00:33:19.271Z,15.20
2022-08-07T00:35:49.731Z,15.10
2022-08-07T00:38:31.637Z,15.10
2022-08-07T00:41:01.304Z,15.00
2022-08-07T00:44:01.990Z,15.00
2022-08-07T00:46:18.390Z,14.90
2022-08-07T00:48:49.879Z,14.90
2022-08-07T00:51:17.974Z,14.90
2022-08-07T00:53:50.213Z,14.80
2022-08-07T00:56:19.129Z,14.70
2022-08-07T00:58:49.836Z,14.70
2022-08-07T01:01:22.315Z,14.70
2022-08-07T01:03:57.091Z,14.60
2022-08-07T01:06:28.392Z,14.60
2022-08-07T01:09:00.795Z,14.60
2022-08-07T01:12:27.473Z,14.50
2022-08-07T01:14:17.245Z,14.50
2022-08-07T01:16:50.885Z,14.40
2022-08-07T01:19:19.970Z,14.40
2022-08-07T01:21:50.149Z,14.30
2022-08-07T01:24:21.881Z,14.30
2022-08-07T01:26:52.264Z,14.20
2022-08-07T01:29:22.100Z,14.20
2022-08-07T01:31:50.285Z,14.20
2022-08-07T01:34:19.077Z,14.10
2022-08-07T01:36:52.753Z,14.00
2022-08-07T01:39:39.603Z,14.00
2022-08-07T01:42:38.619Z,14.00
2022-08-07T01:44:57.367Z,14.00
2022-08-07T01:48:18.320Z,14.00
2022-08-07T01:50:14.236Z,13.90
2022-08-07T01:52:49.407Z,13.90
2022-08-07T01:55:24.179Z,13.90
2022-08-07T01:58:05.939Z,13.80
2022-08-07T02:00:49.341Z,13.70
2022-08-07T02:03:21.646Z,13.70
2022-08-07T02:05:58.557Z,13.70
2022-08-07T02:08:30.387Z,13.70
2022-08-07T02:10:59.619Z,13.60
2022-08-07T02:13:56.393Z,13.50
2022-08-07T02:16:19.577Z,13.40
2022-08-07T02:18:48.758Z,13.40
2022-08-07T02:21:20.403Z,13.30
2022-08-07T02:23:50.058Z,13.30
2022-08-07T02:26:32.676Z,13.20
2022-08-07T02:29:03.161Z,13.20
2022-08-07T02:31:32.788Z,13.20
2022-08-07T02:34:03.626Z,13.10
2022-08-07T02:36:33.288Z,13.00
2022-08-07T02:39:16.563Z,13.00
2022-08-07T02:41:54.627Z,12.90
2022-08-07T02:44:26.917Z,12.90
2022-08-07T02:47:04.241Z,12.80
2022-08-07T02:49:58.467Z,12.70
2022-08-07T02:52:30.954Z,12.70
2022-08-07T02:55:04.480Z,12.60
2022-08-07T02:57:46.768Z,12.60
2022-08-07T03:00:15.597Z,12.60
2022-08-07T03:02:54.418Z,12.60
2022-08-07T03:05:24.645Z,12.60
2022-08-07T03:08:07.515Z,12.60
2022-08-07T03:10:41.099Z,12.50
2022-08-07T03:13:15.509Z,12.50
2022-08-07T03:15:58.476Z,12.60
2022-08-07T03:18:34.785Z,12.60
2022-08-07T03:21:04.517Z,12.60
2022-08-07T03:24:19.720Z,12.60
2022-08-07T03:26:24.083Z,12.70
2022-08-07T03:28:52.389Z,12.70
2022-08-07T03:31:24.410Z,12.70
2022-08-07T03:33:57.326Z,12.70
2022-08-07T03:36:26.540Z,12.80
2022-08-07T03:38:56.399Z,12.70
2022-08-07T03:41:42.306Z,12.80
2022-08-07T03:44:15.362Z,12.80
2022-08-07T03:47:13.398Z,12.80
2022-08-07T03:49:31.581Z,12.80
2022-08-07T03:52:01.851Z,12.80
2022-08-07T03:54:35.336Z,12.80
2022-08-07T03:58:35.081Z,12.80
2022-08-07T04:00:09.058Z,12.80
2022-08-07T04:02:41.278Z,12.80
2022-08-07T04:05:09.623Z,12.90
2022-08-07T04:07:42.555Z,12.80
2022-08-07T04:10:15.377Z,12.90
2022-08-07T04:12:45.341Z,12.90
2022-08-07T04:15:16.018Z,12.80
2022-08-07T04:18:57.024Z,12.90
2022-08-07T04:20:35.270Z,12.90
2022-08-07T04:23:06.462Z,12.90
2022-08-07T04:25:39.139Z,12.90
2022-08-07T04:28:13.497Z,12.90
2022-08-07T04:30:55.120Z,13.00
2022-08-07T04:33:25.418Z,13.00
2022-08-07T04:35:54.065Z,13.10
2022-08-07T04:38:22.866Z,13.10
2022-08-07T04:40:51.632Z,13.10
2022-08-07T04:44:14.549Z,13.20
2022-08-07T04:46:20.141Z,13.30
2022-08-07T04:49:01.747Z,13.40
2022-08-07T04:51:34.381Z,13.50
2022-08-07T04:54:06.958Z,13.60
2022-08-07T04:58:16.965Z,13.70
2022-08-07T05:00:11.477Z,13.80
2022-08-07T05:02:25.098Z,13.90
2022-08-07T05:04:57.487Z,14.10
2022-08-07T05:07:37.005Z,14.20
2022-08-07T05:10:19.504Z,14.30
2022-08-07T05:12:53.069Z,14.40
2022-08-07T05:15:26.603Z,14.60
2022-08-07T05:17:56.855Z,14.70
2022-08-07T05:20:27.238Z,14.80
2022-08-07T05:22:57.754Z,14.90
2022-08-07T05:25:54.381Z,15.00
2022-08-07T05:28:22.703Z,15.10
2022-08-07T05:30:53.275Z,15.20
2022-08-07T05:33:22.240Z,15.30
2022-08-07T05:35:50.992Z,15.50
2022-08-07T05:38:59.608Z,15.60
2022-08-07T05:41:12.261Z,15.70
2022-08-07T05:44:01.128Z,15.80
2022-08-07T05:46:35.930Z,16.00
2022-08-07T05:49:11.746Z,16.10
2022-08-07T05:51:40.851Z,16.30
2022-08-07T05:54:30.861Z,16.40
2022-08-07T05:56:59.062Z,16.70
2022-08-07T05:59:28.069Z,16.90
2022-08-07T06:01:58.271Z,17.20
2022-08-07T06:04:30.279Z,17.50
2022-08-07T06:07:03.872Z,17.90
2022-08-07T06:10:04.767Z,18.10
2022-08-07T06:12:27.840Z,18.30
2022-08-07T06:15:05.211Z,18.70
2022-08-07T06:17:37.390Z,19.10
2022-08-07T06:20:12.771Z,19.40
2022-08-07T06:23:02.090Z,19.70
2022-08-07T06:25:54.379Z,20.10
2022-08-07T06:28:27.401Z,20.50
2022-08-07T06:30:56.046Z,20.70
2022-08-07T06:33:25.427Z,20.80
2022-08-07T06:36:12.235Z,21.10
2022-08-07T06:38:51.620Z,21.30
2022-08-07T06:42:00.702Z,21.70
2022-08-07T06:44:17.907Z,21.90
2022-08-07T06:46:53.186Z,22.00
2022-08-07T06:49:29.380Z,22.10
2022-08-07T06:51:59.587Z,22.30
2022-08-07T06:55:33.207Z,22.30
2022-08-07T06:57:26.422Z,22.10
2022-08-07T07:00:14.844Z,22.20
2022-08-07T07:02:48.631Z,22.40
2022-08-07T07:06:03.200Z,22.40
2022-08-07T07:08:18.886Z,22.50
2022-08-07T07:10:56.398Z,22.60
2022-08-07T07:13:56.103Z,22.70
2022-08-07T07:16:19.636Z,22.90
2022-08-07T07:18:51.196Z,23.10
2022-08-07T07:21:27.036Z,23.30
2022-08-07T07:24:06.298Z,23.50
2022-08-07T07:26:40.670Z,23.70
2022-08-07T07:29:39.209Z,24.00
2022-08-07T07:32:00.180Z,24.20
2022-08-07T07:34:31.926Z,24.40
2022-08-07T07:37:05.377Z,24.60
2022-08-07T07:39:54.491Z,24.70
2022-08-07T07:42:30.007Z,24.90
2022-08-07T07:45:02.660Z,25.00
2022-08-07T07:47:51.935Z,25.00
2022-08-07T07:50:34.518Z,25.10
2022-08-07T07:53:20.232Z,25.20
2022-08-07T07:55:54.698Z,25.50
2022-08-07T07:58:26.203Z,25.70
2022-08-07T08:00:56.569Z,25.90
2022-08-07T08:04:06.507Z,25.90
2022-08-07T08:06:14.945Z,25.90
2022-08-07T08:08:46.055Z,26.00
2022-08-07T08:11:18.220Z,26.20
2022-08-07T08:14:04.182Z,26.20
2022-08-07T08:16:35.240Z,26.30
2022-08-07T08:19:17.814Z,26.40
2022-08-07T08:22:10.797Z,26.20
2022-08-07T08:25:18.674Z,26.00
2022-08-07T08:27:56.714Z,25.90
2022-08-07T08:30:31.977Z,26.10
2022-08-07T08:33:03.764Z,26.30
2022-08-07T08:35:39.286Z,26.40
2022-08-07T08:38:16.266Z,26.50
2022-08-07T08:40:49.281Z,26.70
2022-08-07T08:43:20.989Z,26.80
2022-08-07T08:46:06.102Z,26.90
2022-08-07T08:48:38.502Z,26.80
2022-08-07T08:51:14.624Z,27.00
2022-08-07T08:54:00.039Z,27.20
2022-08-07T08:56:31.599Z,27.10
2022-08-07T08:59:06.373Z,26.90
2022-08-07T09:01:46.722Z,26.80
2022-08-07T09:04:25.874Z,27.00
2022-08-07T09:07:02.073Z,27.20
2022-08-07T09:09:48.070Z,27.10
2022-08-07T09:12:34.065Z,27.00
2022-08-07T09:16:25.229Z,27.10
2022-08-07T09:18:05.100Z,27.20
2022-08-07T09:20:58.086Z,27.50
2022-08-07T09:24:31.220Z,27.30
2022-08-07T09:26:28.338Z,27.30
2022-08-07T09:30:05.238Z,27.20
2022-08-07T09:31:55.818Z,27.40
2022-08-07T09:34:27.288Z,27.40
2022-08-07T09:37:00.330Z,27.20
2022-08-07T09:39:54.796Z,27.30
2022-08-07T09:42:33.573Z,27.20
2022-08-07T09:47:50.387Z,26.90
2022-08-07T09:48:07.496Z,26.80
2022-08-07T09:50:47.429Z,26.60
2022-08-07T09:53:22.593Z,26.60
2022-08-07T09:56:04.993Z,26.40
2022-08-07T09:58:43.427Z,26.30
2022-08-07T10:01:51.172Z,26.40
2022-08-07T10:04:32.925Z,26.50
2022-08-07T10:07:24.478Z,26.80
2022-08-07T10:10:03.955Z,26.90
2022-08-07T10:12:41.856Z,27.00
2022-08-07T10:15:37.579Z,27.10
2022-08-07T10:18:29.125Z,27.20
2022-08-07T10:21:19.483Z,27.40
2022-08-07T10:24:08.489Z,27.60
2022-08-07T10:26:51.653Z,27.80
2022-08-07T10:29:45.588Z,27.90
2022-08-07T10:32:50.926Z,28.10
2022-08-07T10:35:25.545Z,28.10
2022-08-07T10:38:20.839Z,27.70
2022-08-07T10:40:49.949Z,27.50
2022-08-07T10:43:34.260Z,27.30
2022-08-07T10:46:08.354Z,27.20
2022-08-07T10:48:39.894Z,27.20
2022-08-07T10:51:16.343Z,27.30
2022-08-07T10:53:47.499Z,27.40
2022-08-07T10:56:31.545Z,27.40
2022-08-07T10:59:07.833Z,27.20
2022-08-07T11:01:51.617Z,27.10
2022-08-07T11:04:37.781Z,27.10
2022-08-07T11:07:15.145Z,27.10
2022-08-07T11:10:09.400Z,27.20
2022-08-07T11:12:43.430Z,27.40
2022-08-07T11:15:14.894Z,27.50
2022-08-07T11:17:49.558Z,27.60
2022-08-07T11:20:22.597Z,27.70
2022-08-07T11:22:56.556Z,27.60
2022-08-07T11:25:26.947Z,27.50
2022-08-07T11:28:03.296Z,27.20
2022-08-07T11:30:41.816Z,27.20
2022-08-07T11:33:15.824Z,27.10
2022-08-07T11:35:59.428Z,27.20
2022-08-07T11:38:32.898Z,27.20
2022-08-07T11:41:05.672Z,27.20
2022-08-07T11:43:54.648Z,27.30
2022-08-07T11:46:33.663Z,27.30
2022-08-07T11:49:51.421Z,27.30
2022-08-07T11:52:14.815Z,27.10
2022-08-07T11:54:57.368Z,27.20
2022-08-07T11:58:00.769Z,27.10
2022-08-07T12:00:28.413Z,27.10
2022-08-07T12:03:44.384Z,27.30
2022-08-07T12:06:37.210Z,27.70
2022-08-07T12:09:02.903Z,27.90
2022-08-07T12:11:43.407Z,28.10
2022-08-07T12:14:27.213Z,28.10
2022-08-07T12:16:57.090Z,28.00
2022-08-07T12:19:35.947Z,27.80
2022-08-07T12:22:39.372Z,27.70
2022-08-07T12:26:05.724Z,27.50
2022-08-07T12:28:31.336Z,27.30
2022-08-07T12:31:03.718Z,27.20
2022-08-07T12:34:00.814Z,27.00
2022-08-07T12:36:33.085Z,26.80
2022-08-07T12:39:03.325Z,26.80
2022-08-07T12:41:52.161Z,26.80
2022-08-07T12:44:22.800Z,26.70
2022-08-07T12:46:58.714Z,26.70
2022-08-07T12:49:48.916Z,26.60
2022-08-07T12:52:20.659Z,26.60
2022-08-07T12:55:05.632Z,26.70
2022-08-07T12:58:00.646Z,26.70
2022-08-07T13:00:41.643Z,26.70
2022-08-07T13:03:59.123Z,26.80
2022-08-07T13:06:21.974Z,26.90
2022-08-07T13:09:02.687Z,26.80
2022-08-07T13:12:02.501Z,26.80
2022-08-07T13:14:37.670Z,26.90
2022-08-07T13:17:23.383Z,27.10
2022-08-07T13:20:10.592Z,27.20
2022-08-07T13:22:40.752Z,27.30
2022-08-07T13:25:23.902Z,27.30
2022-08-07T13:28:11.724Z,27.30
2022-08-07T13:30:49.011Z,27.30
2022-08-07T13:34:29.942Z,27.40
2022-08-07T13:36:20.183Z,27.40
2022-08-07T13:38:50.849Z,27.50
2022-08-07T13:41:27.857Z,27.30
2022-08-07T13:43:58.398Z,27.40
2022-08-07T13:46:33.420Z,27.50
2022-08-07T13:49:08.684Z,27.40
2022-08-07T13:52:04.967Z,27.30
2022-08-07T13:54:49.411Z,27.30
2022-08-07T13:57:24.050Z,27.40
2022-08-07T13:59:55.619Z,27.40
2022-08-07T14:02:29.761Z,27.40
2022-08-07T14:05:05.086Z,27.50
2022-08-07T14:07:34.267Z,27.50
2022-08-07T14:10:20.468Z,27.50
2022-08-07T14:12:55.713Z,27.40
2022-08-07T14:15:34.990Z,27.40
2022-08-07T14:18:24.531Z,27.40
2022-08-07T14:20:55.869Z,27.50
2022-08-07T14:23:31.749Z,27.50
2022-08-07T14:26:28.054Z,27.50
2022-08-07T14:29:08.452Z,27.50
2022-08-07T14:31:42.909Z,27.60
2022-08-07T14:34:27.178Z,27.60
2022-08-07T14:36:59.068Z,27.60
2022-08-07T14:40:16.565Z,27.50
2022-08-07T14:42:23.070Z,27.50
2022-08-07T14:44:53.999Z,27.50
2022-08-07T14:47:32.535Z,27.50
2022-08-07T14:50:11.307Z,27.50
2022-08-07T14:52:43.632Z,27.50
2022-08-07T14:55:17.699Z,27.40
2022-08-07T15:00:38.485Z,27.30
2022-08-07T15:03:19.324Z,27.20
2022-08-07T15:05:54.388Z,27.10
2022-08-07T15:08:34.477Z,27.00
2022-08-07T15:11:03.819Z,27.00
2022-08-07T15:13:35.898Z,26.90
2022-08-07T15:16:11.266Z,26.80
2022-08-07T15:18:43.413Z,26.80
2022-08-07T15:21:44.086Z,26.70
2022-08-07T15:27:01.219Z,26.60
2022-08-07T15:30:09.462Z,26.60
2022-08-07T15:35:14.720Z,26.40
2022-08-07T15:40:38.798Z,26.30
2022-08-07T15:43:33.335Z,26.30
2022-08-07T15:46:32.155Z,26.20
2022-08-07T15:49:14.269Z,26.20
2022-08-07T15:54:26.781Z,26.20
2022-08-07T15:57:00.605Z,26.20
2022-08-07T15:59:40.069Z,26.10
2022-08-07T16:02:15.533Z,26.00
2022-08-07T16:04:44.113Z,26.00
2022-08-07T16:08:28.503Z,25.90
2022-08-07T16:10:08.715Z,25.90
2022-08-07T16:13:01.250Z,25.80
2022-08-07T16:15:54.854Z,25.70
2022-08-07T16:18:49.869Z,25.60
2022-08-07T16:22:01.652Z,25.50
2022-08-07T16:24:34.355Z,25.40
2022-08-07T16:27:18.395Z,25.30
2022-08-07T16:30:09.831Z,25.20
2022-08-07T16:32:46.250Z,25.10
2022-08-07T16:35:58.722Z,25.10
2022-08-07T16:38:19.493Z,25.00
2022-08-07T16:41:02.129Z,24.90
2022-08-07T16:44:04.232Z,24.90
2022-08-07T16:47:05.955Z,24.90
2022-08-07T16:50:27.448Z,24.80
2022-08-07T16:52:57.330Z,24.70
2022-08-07T16:55:47.127Z,24.70
2022-08-07T16:58:21.803Z,24.60
2022-08-07T17:01:15.635Z,24.60
2022-08-07T17:03:58.057Z,24.50
2022-08-07T17:06:44.588Z,24.50
2022-08-07T17:10:06.790Z,24.50
2022-08-07T17:12:44.729Z,24.40
2022-08-07T17:14:58.802Z,24.30
2022-08-07T17:17:46.650Z,24.30
2022-08-07T17:20:21.479Z,24.20
2022-08-07T17:22:55.539Z,24.20
2022-08-07T17:25:47.472Z,24.10
2022-08-07T17:28:19.584Z,24.10
2022-08-07T17:30:58.346Z,24.10
2022-08-07T17:34:09.216Z,24.00
2022-08-07T17:36:20.885Z,23.90
2022-08-07T17:38:56.002Z,23.90
2022-08-07T17:42:01.495Z,23.90
2022-08-07T17:44:33.746Z,23.80
2022-08-07T17:47:16.916Z,23.80
2022-08-07T17:50:01.292Z,23.80
2022-08-07T17:52:35.334Z,23.80
2022-08-07T17:55:12.664Z,23.70
2022-08-07T17:57:58.510Z,23.70
2022-08-07T18:00:34.252Z,23.60
2022-08-07T18:03:18.216Z,23.60
2022-08-07T18:06:02.401Z,23.60
2022-08-07T18:09:01.039Z,23.60
2022-08-07T18:12:16.661Z,23.50
2022-08-07T18:14:26.188Z,23.50
2022-08-07T18:16:58.485Z,23.40
2022-08-07T18:21:06.522Z,23.40
2022-08-07T18:22:27.296Z,23.30
2022-08-07T18:25:01.720Z,23.30
2022-08-07T18:28:07.385Z,23.20
2022-08-07T18:30:39.916Z,23.20
2022-08-07T18:33:30.762Z,23.10
2022-08-07T18:36:05.982Z,23.00
2022-08-07T18:38:56.077Z,22.90
2022-08-07T18:41:46.038Z,22.90
2022-08-07T18:44:27.363Z,22.80
2022-08-07T18:47:00.175Z,22.70
2022-08-07T18:50:35.117Z,22.70
2022-08-07T18:52:51.849Z,22.70
2022-08-07T18:55:42.723Z,22.60
2022-08-07T18:58:23.340Z,22.50
2022-08-07T19:00:59.271Z,22.50
2022-08-07T19:03:38.050Z,22.40
2022-08-07T19:06:10.195Z,22.40
2022-08-07T19:08:58.687Z,22.30
2022-08-07T19:11:39.243Z,22.30
2022-08-07T19:14:42.842Z,22.20
2022-08-07T19:17:59.231Z,22.10
2022-08-07T19:20:29.048Z,22.10
2022-08-07T19:23:18.220Z,22.00
2022-08-07T19:26:23.327Z,21.90
2022-08-07T19:30:55.403Z,21.70
2022-08-07T19:32:10.568Z,21.60
2022-08-07T19:34:34.208Z,21.50
2022-08-07T19:37:17.128Z,21.40
2022-08-07T19:39:57.435Z,21.20
2022-08-07T19:42:31.385Z,21.10
2022-08-07T19:45:00.512Z,20.90
2022-08-07T19:47:42.111Z,20.80
2022-08-07T19:50:43.829Z,20.60
2022-08-07T19:53:01.185Z,20.50
2022-08-07T19:55:57.928Z,20.30
2022-08-07T19:58:28.234Z,20.20
2022-08-07T20:00:57.470Z,20.10
2022-08-07T20:03:35.472Z,20.00
2022-08-07T20:06:05.063Z,19.90
2022-08-07T20:08:34.749Z,19.70
2022-08-07T20:11:09.974Z,19.70
2022-08-07T20:13:43.615Z,19.60
2022-08-07T20:16:32.115Z,19.40
2022-08-07T20:19:04.946Z,19.40
2022-08-07T20:21:41.791Z,19.20
2022-08-07T20:24:17.701Z,19.10
2022-08-07T20:26:50.213Z,19.00
2022-08-07T20:29:48.031Z,18.90
2022-08-07T20:32:22.964Z,18.80
2022-08-07T20:34:55.441Z,18.70
2022-08-07T20:37:29.455Z,18.60
2022-08-07T20:40:02.307Z,18.50
2022-08-07T20:42:33.267Z,18.50
2022-08-07T20:45:02.076Z,18.40
2022-08-07T20:47:56.530Z,18.30
2022-08-07T20:50:23.588Z,18.20
2022-08-07T20:52:52.891Z,18.10
2022-08-07T20:55:23.890Z,18.00
2022-08-07T20:58:04.232Z,18.00
2022-08-07T21:00:44.182Z,18.00
2022-08-07T21:03:12.816Z,17.90
2022-08-07T21:05:56.142Z,17.70
2022-08-07T21:08:38.225Z,17.70
2022-08-07T21:11:10.780Z,17.70
2022-08-07T21:13:57.208Z,17.60
2022-08-07T21:16:32.218Z,17.50
2022-08-07T21:19:00.541Z,17.50
2022-08-07T21:21:48.918Z,17.40
2022-08-07T21:24:25.508Z,17.30
2022-08-07T21:26:57.175Z,17.10
2022-08-07T21:29:30.550Z,17.10
2022-08-07T21:32:47.066Z,17.10
2022-08-07T21:34:56.510Z,17.10
2022-08-07T21:37:57.520Z,17.00
2022-08-07T21:40:23.274Z,17.00
2022-08-07T21:42:55.891Z,16.90
2022-08-07T21:46:05.256Z,16.80
2022-08-07T21:48:29.092Z,16.80
2022-08-07T21:51:06.098Z,16.70
2022-08-07T21:53:52.494Z,16.60
2022-08-07T21:56:39.673Z,16.60
2022-08-07T21:59:14.746Z,16.50
2022-08-07T22:02:10.210Z,16.50
2022-08-07T22:04:37.454Z,16.50
2022-08-07T22:07:06.770Z,16.40
2022-08-07T22:09:54.107Z,16.30
2022-08-07T22:12:26.530Z,16.30
2022-08-07T22:15:03.314Z,16.30
2022-08-07T22:17:56.018Z,16.20
2022-08-07T22:20:28.534Z,16.30
2022-08-07T22:23:01.592Z,16.30
2022-08-07T22:25:36.276Z,16.40
2022-08-07T22:28:29.704Z,16.50
2022-08-07T22:30:58.006Z,16.60
2022-08-07T22:33:56.269Z,16.70
2022-08-07T22:36:30.351Z,16.80
2022-08-07T22:39:02.219Z,16.90
2022-08-07T22:42:03.119Z,17.00
2022-08-07T22:44:29.088Z,17.00
2022-08-07T22:47:17.360Z,17.00
2022-08-07T22:50:03.102Z,17.00
2022-08-07T22:52:48.766Z,17.00
2022-08-07T22:55:30.619Z,17.00
2022-08-07T22:58:05.455Z,16.90
2022-08-07T23:00:38.249Z,17.00
2022-08-07T23:03:19.094Z,17.00
2022-08-07T23:06:08.954Z,17.00
2022-08-07T23:10:00.926Z,16.90
2022-08-07T23:11:52.913Z,16.90
2022-08-07T23:14:47.396Z,16.90
2022-08-07T23:17:24.435Z,16.90
2022-08-07T23:20:19.323Z,16.90
2022-08-07T23:22:52.344Z,16.90
2022-08-07T23:25:28.683Z,17.10
2022-08-07T23:28:22.047Z,17.10
2022-08-07T23:31:06.184Z,17.10
2022-08-07T23:34:34.013Z,17.10
2022-08-07T23:36:37.670Z,17.10
2022-08-07T23:39:09.521Z,17.00
2022-08-07T23:42:01.511Z,17.00
2022-08-07T23:44:41.828Z,16.90
2022-08-07T23:47:21.498Z,16.90
2022-08-07T23:50:01.039Z,16.90
2022-08-07T23:53:11.749Z,16.70
2022-08-07T23:55:52.638Z,16.60
2022-08-07T23:58:24.267Z,16.50
